CSU6 weather

Spout Lake Seaplane Base
British Columbia, Canada

Public forecast

Using degrees Celsius for public forecast. Weather courtesy of forecast.io.

METAR (pilot weather report)

Closest report is Williams Lake Airport, 24.8 nm (46.0 km) WNW. Retrieved 2019/08/25 01:00 UTC (23 minutes ago):

CYWL 250100Z 30007KT 15SM BKN060TCU 16/09 A2991 RMK TCU6 SLP135 DENSITY ALT 3900FT

TAF (pilot weather forecast)

Closest forecast is Williams Lake Airport, 24.8 nm (46.0 km) WNW. Retrieved 2019/08/25 01:42 UTC (0 seconds ago):

TAF CYWL 250038Z 2501/2513 VRB03KT P6SM BKN100 TEMPO 2501/2503 P6SM -SHRA VCTS BKN060CB FM250300 VRB03KT P6SM BKN070 FM250700 VRB03KT P6SM BKN040 TEMPO 2507/2513 P6SM -SHRA RMK NXT FCST BY 250700Z